createdAt,value
2023-06-19T00:00:23.355Z,60.85
2023-06-19T00:02:51.848Z,60.65
2023-06-19T00:05:20.456Z,61.24
2023-06-19T00:07:48.821Z,61.14
2023-06-19T00:10:18.293Z,62.04
2023-06-19T00:12:48.378Z,62.43
2023-06-19T00:15:17.031Z,62.09
2023-06-19T00:17:45.359Z,61.81
2023-06-19T00:20:14.780Z,62.04
2023-06-19T00:22:43.117Z,62.69
2023-06-19T00:25:11.716Z,63.53
2023-06-19T00:27:41.380Z,64.42
2023-06-19T00:30:11.000Z,64.51
2023-06-19T00:32:47.656Z,64.52
2023-06-19T00:35:17.251Z,64.99
2023-06-19T00:37:46.859Z,65.56
2023-06-19T00:40:29.431Z,65.10
2023-06-19T00:42:59.677Z,65.54
2023-06-19T00:45:29.058Z,66.00
2023-06-19T00:47:59.042Z,66.22
2023-06-19T00:50:30.284Z,66.43
2023-06-19T00:52:58.763Z,65.65
2023-06-19T00:55:30.670Z,65.77
2023-06-19T00:58:01.621Z,66.24
2023-06-19T01:00:29.881Z,65.89
2023-06-19T01:02:58.215Z,67.30
2023-06-19T01:05:26.400Z,67.00
2023-06-19T01:08:03.617Z,66.99
2023-06-19T01:10:36.103Z,67.22
2023-06-19T01:13:17.556Z,67.60
2023-06-19T01:15:46.932Z,67.64
2023-06-19T01:18:15.954Z,67.81
2023-06-19T01:20:44.416Z,67.96
2023-06-19T01:23:14.237Z,67.95
2023-06-19T01:25:42.481Z,68.12
2023-06-19T01:28:13.287Z,67.51
2023-06-19T01:30:45.107Z,68.06
2023-06-19T01:33:20.603Z,68.27
2023-06-19T01:35:50.993Z,68.27
2023-06-19T01:38:22.848Z,68.41
2023-06-19T01:40:51.898Z,68.66
2023-06-19T01:43:20.907Z,69.38
2023-06-19T01:45:49.456Z,69.33
2023-06-19T01:48:17.828Z,68.82
2023-06-19T01:50:47.621Z,68.68
2023-06-19T01:53:16.176Z,68.38
2023-06-19T01:55:45.985Z,68.11
2023-06-19T01:58:14.328Z,67.99
2023-06-19T02:00:42.335Z,67.22
2023-06-19T02:03:10.692Z,65.24
2023-06-19T02:05:43.213Z,64.88
2023-06-19T02:08:11.519Z,64.62
2023-06-19T02:10:39.925Z,64.52
2023-06-19T02:13:09.309Z,63.77
2023-06-19T02:15:37.547Z,62.32
2023-06-19T02:18:06.792Z,61.62
2023-06-19T02:20:37.392Z,61.09
2023-06-19T02:23:05.660Z,61.26
2023-06-19T02:25:34.795Z,61.10
2023-06-19T02:28:04.633Z,61.41
2023-06-19T02:30:37.071Z,61.20
2023-06-19T02:33:06.194Z,60.61
2023-06-19T02:35:34.505Z,60.70
2023-06-19T02:38:02.462Z,60.74
2023-06-19T02:40:33.243Z,60.85
2023-06-19T02:43:01.647Z,60.61
2023-06-19T02:45:30.007Z,60.87
2023-06-19T02:47:59.758Z,60.75
2023-06-19T02:50:27.803Z,60.82
2023-06-19T02:52:56.024Z,61.08
2023-06-19T02:55:24.127Z,60.92
2023-06-19T02:57:52.359Z,60.95
2023-06-19T03:00:21.069Z,61.23
2023-06-19T03:02:50.015Z,61.00
2023-06-19T03:05:19.677Z,60.82
2023-06-19T03:07:47.791Z,61.16
2023-06-19T03:10:15.926Z,60.97
2023-06-19T03:12:44.054Z,60.92
2023-06-19T03:15:12.801Z,61.06
2023-06-19T03:17:40.939Z,61.30
2023-06-19T03:20:13.182Z,60.80
2023-06-19T03:22:44.442Z,60.38
2023-06-19T03:25:12.529Z,60.54
2023-06-19T03:27:40.741Z,61.39
2023-06-19T03:30:09.390Z,60.35
2023-06-19T03:32:37.564Z,60.67
2023-06-19T03:35:06.773Z,60.49
2023-06-19T03:37:34.784Z,60.69
2023-06-19T03:40:05.797Z,61.20
2023-06-19T03:42:33.775Z,61.07
2023-06-19T03:45:01.784Z,61.35
2023-06-19T03:47:29.835Z,61.67
2023-06-19T03:50:07.799Z,62.95
2023-06-19T03:52:47.717Z,62.68
2023-06-19T03:55:16.837Z,63.25
2023-06-19T03:57:44.843Z,62.84
2023-06-19T04:00:14.238Z,62.61
2023-06-19T04:02:42.386Z,63.58
2023-06-19T04:05:10.657Z,63.67
2023-06-19T04:07:38.614Z,63.61
2023-06-19T04:10:07.808Z,63.99
2023-06-19T04:12:37.165Z,63.78
2023-06-19T04:15:05.676Z,64.25
2023-06-19T04:17:33.788Z,64.16
2023-06-19T04:20:01.955Z,64.26
2023-06-19T04:22:29.928Z,64.22
2023-06-19T04:24:57.933Z,64.39
2023-06-19T04:27:25.934Z,64.70
2023-06-19T04:29:55.577Z,64.66
2023-06-19T04:32:23.712Z,64.19
2023-06-19T04:34:51.698Z,64.21
2023-06-19T04:37:20.403Z,64.16
2023-06-19T04:39:48.565Z,64.29
2023-06-19T04:42:20.658Z,64.25
2023-06-19T04:44:49.125Z,65.03
2023-06-19T04:47:20.002Z,65.39
2023-06-19T04:49:48.019Z,65.37
2023-06-19T04:52:16.341Z,65.23
2023-06-19T04:54:44.189Z,65.37
2023-06-19T04:57:12.178Z,64.89
2023-06-19T04:59:40.119Z,65.56
2023-06-19T05:02:08.623Z,66.27
2023-06-19T05:04:37.994Z,65.71
2023-06-19T05:07:07.337Z,66.28
2023-06-19T05:09:35.313Z,65.87
2023-06-19T05:12:03.345Z,65.92
2023-06-19T05:14:31.320Z,65.94
2023-06-19T05:16:59.412Z,66.61
2023-06-19T05:19:27.445Z,67.33
2023-06-19T05:21:57.369Z,67.56
2023-06-19T05:24:25.433Z,68.32
2023-06-19T05:26:53.600Z,68.06
2023-06-19T05:29:21.583Z,68.09
2023-06-19T05:31:49.567Z,69.14
2023-06-19T05:34:17.586Z,69.22
2023-06-19T05:36:48.167Z,69.89
2023-06-19T05:39:20.310Z,70.55
2023-06-19T05:41:51.300Z,71.86
2023-06-19T05:44:20.247Z,70.56
2023-06-19T05:46:48.404Z,70.71
2023-06-19T05:49:16.476Z,70.75
2023-06-19T05:51:44.831Z,71.80
2023-06-19T05:54:12.575Z,71.61
2023-06-19T05:56:42.363Z,71.56
2023-06-19T05:59:10.297Z,71.44
2023-06-19T06:01:38.463Z,72.06
2023-06-19T06:04:06.615Z,72.79
2023-06-19T06:06:35.704Z,72.51
2023-06-19T06:09:03.772Z,73.12
2023-06-19T06:11:31.837Z,73.04
2023-06-19T06:14:01.182Z,72.91
2023-06-19T06:16:29.464Z,72.30
2023-06-19T06:18:57.270Z,72.82
2023-06-19T06:21:25.501Z,72.11
2023-06-19T06:23:53.477Z,72.93
2023-06-19T06:26:21.458Z,71.71
2023-06-19T06:28:52.126Z,71.61
2023-06-19T06:31:21.609Z,72.85
2023-06-19T06:33:51.919Z,71.90
2023-06-19T06:36:33.688Z,73.11
2023-06-19T06:39:04.751Z,72.13
2023-06-19T06:41:32.781Z,72.21
2023-06-19T06:44:03.701Z,72.64
2023-06-19T06:46:35.437Z,72.87
2023-06-19T06:49:03.418Z,72.69
2023-06-19T06:51:31.429Z,73.24
2023-06-19T06:53:59.859Z,73.02
2023-06-19T06:56:27.821Z,73.53
2023-06-19T06:58:55.802Z,73.88
2023-06-19T07:01:23.952Z,73.20
2023-06-19T07:03:54.192Z,73.26
2023-06-19T07:06:23.616Z,73.81
2023-06-19T07:08:51.665Z,73.36
2023-06-19T07:11:19.692Z,73.25
2023-06-19T07:13:47.925Z,73.47
2023-06-19T07:16:16.079Z,73.93
2023-06-19T07:18:44.140Z,74.35
2023-06-19T07:21:14.879Z,73.99
2023-06-19T07:23:43.581Z,74.68
2023-06-19T07:26:12.163Z,73.60
2023-06-19T07:28:40.234Z,73.64
2023-06-19T07:31:08.248Z,74.01
2023-06-19T07:33:36.864Z,74.22
2023-06-19T07:36:05.163Z,74.09
2023-06-19T07:38:34.521Z,74.09
2023-06-19T07:41:02.537Z,74.48
2023-06-19T07:43:30.914Z,74.92
2023-06-19T07:45:58.927Z,75.26
2023-06-19T07:48:27.305Z,75.17
2023-06-19T07:50:56.143Z,75.80
2023-06-19T07:53:24.262Z,75.98
2023-06-19T07:55:53.671Z,76.02
2023-06-19T07:58:21.784Z,76.13
2023-06-19T08:00:50.098Z,76.35
2023-06-19T08:03:18.002Z,76.33
2023-06-19T08:05:46.631Z,76.48
2023-06-19T08:08:16.200Z,76.45
2023-06-19T08:10:44.829Z,77.01
2023-06-19T08:13:15.138Z,76.59
2023-06-19T08:15:43.878Z,76.51
2023-06-19T08:18:14.016Z,77.17
2023-06-19T08:20:42.236Z,77.39
2023-06-19T08:23:10.255Z,77.79
2023-06-19T08:25:38.294Z,77.19
2023-06-19T08:28:07.651Z,77.57
2023-06-19T08:30:37.125Z,78.04
2023-06-19T08:33:05.310Z,78.75
2023-06-19T08:35:33.462Z,78.29
2023-06-19T08:38:01.455Z,78.09
2023-06-19T08:40:29.478Z,77.77
2023-06-19T08:42:58.007Z,77.80
2023-06-19T08:45:28.983Z,77.95
2023-06-19T08:48:02.017Z,77.35
2023-06-19T08:50:30.046Z,76.98
2023-06-19T08:52:58.628Z,77.44
2023-06-19T08:55:30.341Z,77.80
2023-06-19T08:57:58.391Z,77.60
2023-06-19T09:00:27.948Z,77.32
2023-06-19T09:03:12.298Z,77.56
2023-06-19T09:05:47.685Z,77.30
2023-06-19T09:08:16.949Z,76.98
2023-06-19T09:10:45.281Z,76.82
2023-06-19T09:13:13.028Z,76.76
2023-06-19T09:15:41.065Z,76.39
2023-06-19T09:18:12.556Z,76.72
2023-06-19T09:20:45.615Z,76.36
2023-06-19T09:23:15.532Z,75.64
2023-06-19T09:25:48.378Z,76.89
2023-06-19T09:28:22.387Z,76.35
2023-06-19T09:30:58.085Z,76.23
2023-06-19T09:33:29.611Z,76.11
2023-06-19T09:35:59.286Z,76.63
2023-06-19T09:38:32.304Z,76.25
2023-06-19T09:41:03.573Z,76.79
2023-06-19T09:43:38.109Z,76.79
2023-06-19T09:46:07.520Z,76.18
2023-06-19T09:48:41.577Z,76.21
2023-06-19T09:51:14.548Z,76.35
2023-06-19T09:53:42.836Z,75.57
2023-06-19T09:56:11.217Z,76.00
2023-06-19T09:58:40.333Z,75.50
2023-06-19T10:01:08.781Z,75.87
2023-06-19T10:03:39.244Z,76.07
2023-06-19T10:06:07.566Z,76.00
2023-06-19T10:08:41.660Z,75.78
2023-06-19T10:11:09.802Z,76.52
2023-06-19T10:13:40.171Z,76.45
2023-06-19T10:16:08.451Z,76.46
2023-06-19T10:18:47.500Z,76.83
2023-06-19T10:21:18.967Z,76.51
2023-06-19T10:23:55.666Z,76.99
2023-06-19T10:26:34.975Z,77.75
2023-06-19T10:29:03.831Z,77.55
2023-06-19T10:31:31.867Z,77.73
2023-06-19T10:34:01.365Z,78.22
2023-06-19T10:36:29.349Z,78.37
2023-06-19T10:38:57.436Z,78.99
2023-06-19T10:41:27.253Z,79.14
2023-06-19T10:43:56.692Z,79.33
2023-06-19T10:46:26.186Z,79.92
2023-06-19T10:48:57.767Z,80.51
2023-06-19T10:51:27.289Z,80.66
2023-06-19T10:53:56.485Z,80.33
2023-06-19T10:56:25.565Z,81.00
2023-06-19T10:58:59.600Z,80.44
2023-06-19T11:01:35.349Z,80.75
2023-06-19T11:04:05.554Z,80.58
2023-06-19T11:06:38.075Z,79.33
2023-06-19T11:09:06.457Z,78.99
2023-06-19T11:11:41.818Z,79.16
2023-06-19T11:14:11.990Z,77.32
2023-06-19T11:16:41.571Z,76.26
2023-06-19T11:19:10.428Z,74.93
2023-06-19T11:21:40.362Z,74.83
2023-06-19T11:24:16.433Z,73.65
2023-06-19T11:26:50.612Z,71.51
2023-06-19T11:29:20.566Z,71.17
2023-06-19T11:31:49.218Z,71.19
2023-06-19T11:34:17.883Z,71.27
2023-06-19T11:36:47.301Z,71.43
2023-06-19T11:39:18.285Z,70.07
2023-06-19T11:41:49.863Z,70.16
2023-06-19T11:44:18.293Z,68.84
2023-06-19T11:46:46.318Z,68.58
2023-06-19T11:49:15.410Z,68.53
2023-06-19T11:51:43.474Z,66.79
2023-06-19T11:54:16.964Z,65.55
2023-06-19T11:56:45.068Z,64.98
2023-06-19T11:59:13.139Z,65.35
2023-06-19T12:01:41.132Z,64.77
2023-06-19T12:04:09.431Z,62.74
2023-06-19T12:06:38.494Z,62.40
2023-06-19T12:09:07.183Z,62.21
2023-06-19T12:11:37.059Z,61.32
2023-06-19T12:14:05.028Z,62.29
2023-06-19T12:16:33.174Z,60.36
2023-06-19T12:19:01.200Z,60.33
2023-06-19T12:21:35.543Z,59.46
2023-06-19T12:24:07.951Z,58.46
2023-06-19T12:26:38.734Z,58.33
2023-06-19T12:29:07.918Z,57.31
2023-06-19T12:31:37.252Z,56.89
2023-06-19T12:34:13.929Z,59.27
2023-06-19T12:36:49.025Z,59.31
2023-06-19T12:39:18.029Z,58.41
2023-06-19T12:41:49.805Z,57.76
2023-06-19T12:44:17.975Z,57.05
2023-06-19T12:46:46.001Z,58.46
2023-06-19T12:49:14.132Z,58.22
2023-06-19T12:51:42.113Z,59.13
2023-06-19T12:54:11.243Z,59.42
2023-06-19T12:56:39.231Z,60.29
2023-06-19T12:59:08.563Z,60.63
2023-06-19T13:01:39.086Z,59.90
2023-06-19T13:04:07.308Z,59.48
2023-06-19T13:06:35.605Z,60.57
2023-06-19T13:09:06.376Z,59.55
2023-06-19T13:11:35.504Z,58.21
2023-06-19T13:14:03.673Z,58.13
2023-06-19T13:16:46.100Z,58.15
2023-06-19T13:19:15.454Z,58.37
2023-06-19T13:21:43.922Z,56.85
2023-06-19T13:24:12.765Z,57.61
2023-06-19T13:26:40.903Z,57.84
2023-06-19T13:29:08.910Z,57.33
2023-06-19T13:31:38.211Z,56.53
2023-06-19T13:34:06.362Z,56.95
2023-06-19T13:36:34.371Z,56.70
2023-06-19T13:39:02.558Z,57.25
2023-06-19T13:41:32.417Z,58.43
2023-06-19T13:44:01.076Z,58.69
2023-06-19T13:46:29.532Z,58.92
2023-06-19T13:48:59.001Z,59.07
2023-06-19T13:51:27.479Z,58.94
2023-06-19T13:53:55.683Z,59.09
2023-06-19T13:56:28.487Z,59.22
2023-06-19T13:58:56.502Z,59.30
2023-06-19T14:01:26.621Z,57.60
2023-06-19T14:03:54.721Z,57.22
2023-06-19T14:06:24.286Z,57.56
2023-06-19T14:08:52.320Z,57.93
2023-06-19T14:11:21.021Z,57.83
2023-06-19T14:13:49.053Z,58.77
2023-06-19T14:16:17.294Z,58.65
2023-06-19T14:18:45.303Z,59.49
2023-06-19T14:21:13.229Z,59.37
2023-06-19T14:23:44.613Z,60.08
2023-06-19T14:26:14.629Z,60.45
2023-06-19T14:28:42.732Z,60.89
2023-06-19T14:31:10.689Z,60.80
2023-06-19T14:33:39.186Z,60.15
2023-06-19T14:36:07.560Z,59.27
2023-06-19T14:38:35.700Z,57.94
2023-06-19T14:41:05.869Z,56.97
2023-06-19T14:43:34.839Z,57.44
2023-06-19T14:46:04.823Z,57.99
2023-06-19T14:48:32.902Z,58.23
2023-06-19T14:51:00.877Z,58.65
2023-06-19T14:53:28.915Z,59.68
2023-06-19T14:55:56.893Z,60.04
2023-06-19T14:58:29.754Z,60.87
2023-06-19T15:00:59.123Z,60.45
2023-06-19T15:03:27.289Z,60.13
2023-06-19T15:05:55.434Z,59.37
2023-06-19T15:08:25.192Z,58.83
2023-06-19T15:10:53.462Z,58.84
2023-06-19T15:13:21.452Z,58.41
2023-06-19T15:15:52.018Z,57.56
2023-06-19T15:18:20.275Z,57.67
2023-06-19T15:20:48.438Z,57.33
2023-06-19T15:23:16.440Z,55.71
2023-06-19T15:25:44.442Z,56.10
2023-06-19T15:28:12.992Z,55.94
2023-06-19T15:30:41.005Z,56.69
2023-06-19T15:33:10.663Z,57.03
2023-06-19T15:35:38.704Z,56.85
2023-06-19T15:38:08.636Z,56.90
2023-06-19T15:40:36.603Z,56.72
2023-06-19T15:43:04.598Z,57.34
2023-06-19T15:45:32.540Z,58.50
2023-06-19T15:48:00.581Z,58.34
2023-06-19T15:50:29.793Z,58.34
2023-06-19T15:52:57.737Z,58.20
2023-06-19T15:55:25.785Z,59.26
2023-06-19T15:57:53.745Z,58.46
2023-06-19T16:00:23.982Z,58.54
2023-06-19T16:02:52.283Z,57.79
2023-06-19T16:05:20.138Z,58.17
2023-06-19T16:07:55.548Z,58.56
2023-06-19T16:10:23.840Z,58.63
2023-06-19T16:12:52.069Z,59.14
2023-06-19T16:15:25.282Z,58.64
2023-06-19T16:17:57.472Z,58.78
2023-06-19T16:20:28.480Z,59.22
2023-06-19T16:22:57.960Z,60.03
2023-06-19T16:25:26.041Z,59.61
2023-06-19T16:27:54.065Z,59.36
2023-06-19T16:30:22.286Z,59.76
2023-06-19T16:32:50.467Z,59.63
2023-06-19T16:35:23.557Z,60.00
2023-06-19T16:37:54.600Z,59.62
2023-06-19T16:40:26.190Z,60.69
2023-06-19T16:42:55.332Z,60.38
2023-06-19T16:45:27.609Z,60.41
2023-06-19T16:47:56.064Z,59.62
2023-06-19T16:50:24.764Z,60.36
2023-06-19T16:52:53.039Z,60.72
2023-06-19T16:55:23.703Z,61.15
2023-06-19T16:57:53.143Z,61.91
2023-06-19T17:00:21.552Z,61.74
2023-06-19T17:02:56.983Z,62.13
2023-06-19T17:05:26.108Z,62.13
2023-06-19T17:07:54.153Z,62.43
2023-06-19T17:10:24.127Z,62.89
2023-06-19T17:12:55.775Z,63.06
2023-06-19T17:15:23.768Z,63.69
2023-06-19T17:17:51.789Z,63.09
2023-06-19T17:20:19.897Z,63.61
2023-06-19T17:22:48.133Z,63.60
2023-06-19T17:25:16.183Z,63.21
2023-06-19T17:27:44.448Z,63.95
2023-06-19T17:30:15.922Z,63.96
2023-06-19T17:35:17.192Z,64.10
2023-06-19T17:37:45.536Z,64.28
2023-06-19T17:40:22.225Z,64.65
2023-06-19T17:42:51.790Z,64.43
2023-06-19T17:45:22.608Z,64.69
2023-06-19T17:47:51.298Z,64.96
2023-06-19T17:50:19.371Z,65.00
2023-06-19T17:52:50.517Z,65.28
2023-06-19T17:55:18.544Z,65.34
2023-06-19T17:57:46.602Z,65.71
2023-06-19T18:00:15.532Z,65.48
2023-06-19T18:02:44.948Z,65.47
2023-06-19T18:05:12.934Z,65.29
2023-06-19T18:07:40.944Z,65.76
2023-06-19T18:10:12.319Z,65.90
2023-06-19T18:12:43.854Z,65.48
2023-06-19T18:15:12.822Z,65.53
2023-06-19T18:17:40.811Z,65.82
2023-06-19T18:20:19.907Z,65.82
2023-06-19T18:22:47.908Z,66.14
2023-06-19T18:25:16.342Z,65.88
2023-06-19T18:27:44.603Z,66.73
2023-06-19T18:30:12.798Z,66.38
2023-06-19T18:32:40.851Z,66.12
2023-06-19T18:35:10.860Z,66.10
2023-06-19T18:37:38.847Z,66.46
2023-06-19T18:40:08.329Z,66.44
2023-06-19T18:42:36.483Z,66.40
2023-06-19T18:45:04.817Z,66.58
2023-06-19T18:47:32.816Z,66.72
2023-06-19T18:50:01.059Z,66.39
2023-06-19T18:52:30.426Z,66.65
2023-06-19T18:54:58.365Z,66.99
2023-06-19T18:57:29.335Z,67.06
2023-06-19T18:59:58.113Z,66.86
2023-06-19T19:02:26.779Z,67.08
2023-06-19T19:04:55.857Z,67.19
2023-06-19T19:07:24.758Z,67.34
2023-06-19T19:09:55.178Z,67.40
2023-06-19T19:12:23.215Z,67.73
2023-06-19T19:14:51.225Z,67.51
2023-06-19T19:17:19.256Z,67.64
2023-06-19T19:19:47.273Z,68.22
2023-06-19T19:22:15.317Z,68.21
2023-06-19T19:24:43.372Z,68.09
2023-06-19T19:27:12.641Z,68.05
2023-06-19T19:29:40.924Z,68.45
2023-06-19T19:32:08.952Z,68.28
2023-06-19T19:34:36.950Z,68.41
2023-06-19T19:37:04.982Z,68.25
2023-06-19T19:39:35.568Z,68.50
2023-06-19T19:42:06.313Z,68.10
2023-06-19T19:44:35.652Z,68.78
2023-06-19T19:47:03.722Z,68.60
2023-06-19T19:49:31.682Z,68.72
2023-06-19T19:51:59.672Z,68.66
2023-06-19T19:54:27.736Z,68.55
2023-06-19T19:56:58.299Z,69.07
2023-06-19T19:59:29.387Z,69.12
2023-06-19T20:01:58.918Z,69.14
2023-06-19T20:04:27.006Z,69.00
2023-06-19T20:06:55.161Z,68.96
2023-06-19T20:09:23.216Z,69.23
2023-06-19T20:11:51.566Z,68.57
2023-06-19T20:14:19.841Z,68.25
2023-06-19T20:16:47.590Z,67.98
2023-06-19T20:19:17.028Z,68.11
2023-06-19T20:21:45.001Z,68.26
2023-06-19T20:24:12.991Z,68.42
2023-06-19T20:26:41.061Z,68.14
2023-06-19T20:29:11.641Z,67.80
2023-06-19T20:31:39.897Z,68.08
2023-06-19T20:34:07.907Z,68.32
2023-06-19T20:36:37.266Z,68.20
2023-06-19T20:39:07.005Z,67.92
2023-06-19T20:41:38.777Z,68.03
2023-06-19T20:44:06.946Z,68.49
2023-06-19T20:46:35.174Z,67.89
2023-06-19T20:49:02.910Z,67.68
2023-06-19T20:51:30.954Z,67.50
2023-06-19T20:54:04.856Z,67.76
2023-06-19T20:56:32.832Z,67.23
2023-06-19T20:59:00.806Z,66.56
2023-06-19T21:01:29.281Z,66.03
2023-06-19T21:03:57.246Z,65.92
2023-06-19T21:06:26.503Z,65.77
2023-06-19T21:08:55.346Z,65.28
2023-06-19T21:11:24.791Z,66.51
2023-06-19T21:13:52.763Z,67.40
2023-06-19T21:16:20.754Z,68.52
2023-06-19T21:18:48.821Z,71.07
2023-06-19T21:21:16.789Z,71.39
2023-06-19T21:23:44.800Z,72.23
2023-06-19T21:26:12.805Z,72.69
2023-06-19T21:28:42.198Z,74.13
2023-06-19T21:31:11.377Z,74.69
2023-06-19T21:33:39.326Z,75.36
2023-06-19T21:36:08.021Z,76.54
2023-06-19T21:38:36.145Z,76.82
2023-06-19T21:41:04.436Z,77.04
2023-06-19T21:43:34.865Z,77.75
2023-06-19T21:46:04.519Z,77.94
2023-06-19T21:48:32.532Z,78.17
2023-06-19T21:51:01.141Z,78.28
2023-06-19T21:53:29.421Z,78.07
2023-06-19T21:55:59.560Z,78.29
2023-06-19T21:58:27.648Z,78.66
2023-06-19T22:01:00.597Z,79.22
2023-06-19T22:03:30.265Z,79.31
2023-06-19T22:05:58.396Z,79.46
2023-06-19T22:08:41.503Z,79.38
2023-06-19T22:11:10.473Z,79.93
2023-06-19T22:13:42.543Z,79.84
2023-06-19T22:16:10.709Z,80.32
2023-06-19T22:18:40.123Z,79.99
2023-06-19T22:21:08.103Z,80.34
2023-06-19T22:23:39.384Z,80.47
2023-06-19T22:26:07.440Z,80.71
2023-06-19T22:28:35.584Z,80.58
2023-06-19T22:31:03.630Z,80.69
2023-06-19T22:33:31.709Z,81.04
2023-06-19T22:36:01.051Z,81.21
2023-06-19T22:38:29.026Z,81.26
2023-06-19T22:40:57.734Z,81.64
2023-06-19T22:43:25.712Z,81.27
2023-06-19T22:45:55.602Z,81.57
2023-06-19T22:48:27.733Z,81.69
2023-06-19T22:50:56.006Z,81.79
2023-06-19T22:53:26.883Z,81.71
2023-06-19T22:55:55.148Z,81.37
2023-06-19T22:58:23.628Z,81.25
2023-06-19T23:00:51.615Z,81.75
2023-06-19T23:03:22.878Z,81.75
2023-06-19T23:05:50.976Z,81.73
2023-06-19T23:08:21.946Z,82.29
2023-06-19T23:10:51.407Z,82.27
2023-06-19T23:13:19.508Z,81.90
2023-06-19T23:15:47.524Z,81.99
2023-06-19T23:18:15.507Z,81.72
2023-06-19T23:20:43.480Z,82.01
2023-06-19T23:23:11.754Z,81.88
2023-06-19T23:25:39.762Z,81.90
2023-06-19T23:28:09.120Z,82.07
2023-06-19T23:30:37.085Z,82.00
2023-06-19T23:33:05.707Z,82.06
2023-06-19T23:35:33.781Z,82.16
2023-06-19T23:38:01.972Z,82.06
2023-06-19T23:40:31.007Z,82.16
2023-06-19T23:42:59.320Z,81.71
2023-06-19T23:45:28.479Z,81.23
2023-06-19T23:47:56.847Z,81.29
2023-06-19T23:50:25.555Z,81.61
2023-06-19T23:52:56.785Z,81.75
2023-06-19T23:55:24.950Z,82.06
2023-06-19T23:57:54.988Z,81.36
